sensor_id;sensor_type;location;lat;lon;timestamp;P1;durP1;ratioP1;P2;durP2;ratioP2
46651;SDS011;32377;52.182;5.398;2023-08-21T00:00:05;8.18;;;2.70;;
46651;SDS011;32377;52.182;5.398;2023-08-21T00:02:32;7.75;;;2.50;;
46651;SDS011;32377;52.182;5.398;2023-08-21T00:04:58;7.50;;;2.40;;
46651;SDS011;32377;52.182;5.398;2023-08-21T00:07:23;7.10;;;2.63;;
46651;SDS011;32377;52.182;5.398;2023-08-21T00:09:49;7.72;;;2.92;;
46651;SDS011;32377;52.182;5.398;2023-08-21T00:12:15;9.32;;;2.83;;
46651;SDS011;32377;52.182;5.398;2023-08-21T00:14:41;9.48;;;2.80;;
46651;SDS011;32377;52.182;5.398;2023-08-21T00:17:06;6.25;;;2.78;;
46651;SDS011;32377;52.182;5.398;2023-08-21T00:19:33;9.02;;;2.40;;
46651;SDS011;32377;52.182;5.398;2023-08-21T00:21:59;6.32;;;3.05;;
46651;SDS011;32377;52.182;5.398;2023-08-21T00:24:24;8.90;;;2.75;;
46651;SDS011;32377;52.182;5.398;2023-08-21T00:26:50;10.65;;;3.28;;
46651;SDS011;32377;52.182;5.398;2023-08-21T00:29:16;10.68;;;3.70;;
46651;SDS011;32377;52.182;5.398;2023-08-21T00:31:41;7.97;;;2.88;;
46651;SDS011;32377;52.182;5.398;2023-08-21T00:34:07;6.50;;;2.55;;
46651;SDS011;32377;52.182;5.398;2023-08-21T00:36:32;6.32;;;2.53;;
46651;SDS011;32377;52.182;5.398;2023-08-21T00:38:58;7.55;;;3.10;;
46651;SDS011;32377;52.182;5.398;2023-08-21T00:41:24;5.50;;;2.53;;
46651;SDS011;32377;52.182;5.398;2023-08-21T00:43:49;9.38;;;3.00;;
46651;SDS011;32377;52.182;5.398;2023-08-21T00:46:15;7.95;;;3.10;;
46651;SDS011;32377;52.182;5.398;2023-08-21T00:48:42;7.65;;;3.13;;
46651;SDS011;32377;52.182;5.398;2023-08-21T00:51:09;8.27;;;2.90;;
46651;SDS011;32377;52.182;5.398;2023-08-21T00:53:36;6.57;;;2.53;;
46651;SDS011;32377;52.182;5.398;2023-08-21T00:56:03;6.13;;;2.72;;
46651;SDS011;32377;52.182;5.398;2023-08-21T00:58:29;6.20;;;3.05;;
46651;SDS011;32377;52.182;5.398;2023-08-21T01:00:55;7.82;;;2.78;;
46651;SDS011;32377;52.182;5.398;2023-08-21T01:03:22;7.75;;;3.53;;
46651;SDS011;32377;52.182;5.398;2023-08-21T01:05:49;7.78;;;3.20;;
46651;SDS011;32377;52.182;5.398;2023-08-21T01:13:34;12.15;;;3.80;;
46651;SDS011;32377;52.182;5.398;2023-08-21T01:16:13;9.38;;;3.50;;
46651;SDS011;32377;52.182;5.398;2023-08-21T01:18:39;10.25;;;3.50;;
46651;SDS011;32377;52.182;5.398;2023-08-21T01:21:06;9.25;;;3.35;;
46651;SDS011;32377;52.182;5.398;2023-08-21T01:23:35;8.20;;;3.63;;
46651;SDS011;32377;52.182;5.398;2023-08-21T01:26:01;9.95;;;3.15;;
46651;SDS011;32377;52.182;5.398;2023-08-21T01:28:27;10.95;;;4.22;;
46651;SDS011;32377;52.182;5.398;2023-08-21T01:30:57;7.47;;;3.70;;
46651;SDS011;32377;52.182;5.398;2023-08-21T01:33:33;6.72;;;3.55;;
46651;SDS011;32377;52.182;5.398;2023-08-21T01:36:05;8.13;;;3.42;;
46651;SDS011;32377;52.182;5.398;2023-08-21T01:38:32;9.98;;;4.40;;
46651;SDS011;32377;52.182;5.398;2023-08-21T01:40:58;9.10;;;4.75;;
46651;SDS011;32377;52.182;5.398;2023-08-21T01:43:24;13.43;;;4.20;;
46651;SDS011;32377;52.182;5.398;2023-08-21T01:45:49;7.40;;;3.63;;
46651;SDS011;32377;52.182;5.398;2023-08-21T01:48:15;10.93;;;3.42;;
46651;SDS011;32377;52.182;5.398;2023-08-21T01:50:40;9.48;;;4.13;;
46651;SDS011;32377;52.182;5.398;2023-08-21T01:53:06;12.05;;;4.07;;
46651;SDS011;32377;52.182;5.398;2023-08-21T01:55:32;11.27;;;4.20;;
46651;SDS011;32377;52.182;5.398;2023-08-21T01:57:57;10.88;;;3.85;;
46651;SDS011;32377;52.182;5.398;2023-08-21T02:00:23;8.82;;;3.88;;
46651;SDS011;32377;52.182;5.398;2023-08-21T02:02:48;9.07;;;4.00;;
46651;SDS011;32377;52.182;5.398;2023-08-21T02:05:14;8.57;;;4.30;;
46651;SDS011;32377;52.182;5.398;2023-08-21T02:07:40;9.07;;;4.32;;
46651;SDS011;32377;52.182;5.398;2023-08-21T02:10:05;10.75;;;4.25;;
46651;SDS011;32377;52.182;5.398;2023-08-21T02:12:31;10.35;;;3.90;;
46651;SDS011;32377;52.182;5.398;2023-08-21T02:14:57;11.82;;;4.55;;
46651;SDS011;32377;52.182;5.398;2023-08-21T02:17:25;8.15;;;4.30;;
46651;SDS011;32377;52.182;5.398;2023-08-21T02:19:51;9.20;;;4.03;;
46651;SDS011;32377;52.182;5.398;2023-08-21T02:22:17;12.23;;;3.55;;
46651;SDS011;32377;52.182;5.398;2023-08-21T02:24:43;9.40;;;4.28;;
46651;SDS011;32377;52.182;5.398;2023-08-21T02:27:08;10.85;;;3.90;;
46651;SDS011;32377;52.182;5.398;2023-08-21T02:29:34;10.05;;;4.00;;
46651;SDS011;32377;52.182;5.398;2023-08-21T02:32:00;7.50;;;3.65;;
46651;SDS011;32377;52.182;5.398;2023-08-21T02:34:25;10.45;;;3.55;;
46651;SDS011;32377;52.182;5.398;2023-08-21T02:36:51;7.90;;;3.40;;
46651;SDS011;32377;52.182;5.398;2023-08-21T02:39:17;10.35;;;4.22;;
46651;SDS011;32377;52.182;5.398;2023-08-21T02:41:43;9.57;;;4.13;;
46651;SDS011;32377;52.182;5.398;2023-08-21T02:44:08;11.63;;;4.00;;
46651;SDS011;32377;52.182;5.398;2023-08-21T02:46:34;14.20;;;5.20;;
46651;SDS011;32377;52.182;5.398;2023-08-21T02:49:01;11.90;;;4.60;;
46651;SDS011;32377;52.182;5.398;2023-08-21T02:51:27;13.43;;;4.65;;
46651;SDS011;32377;52.182;5.398;2023-08-21T02:53:52;14.57;;;4.50;;
46651;SDS011;32377;52.182;5.398;2023-08-21T02:56:18;11.00;;;4.70;;
46651;SDS011;32377;52.182;5.398;2023-08-21T02:58:44;8.52;;;3.72;;
46651;SDS011;32377;52.182;5.398;2023-08-21T03:01:10;9.82;;;4.03;;
46651;SDS011;32377;52.182;5.398;2023-08-21T03:03:35;8.80;;;4.25;;
46651;SDS011;32377;52.182;5.398;2023-08-21T03:06:01;8.55;;;3.40;;
46651;SDS011;32377;52.182;5.398;2023-08-21T03:08:27;6.43;;;3.35;;
46651;SDS011;32377;52.182;5.398;2023-08-21T03:10:52;7.28;;;3.20;;
46651;SDS011;32377;52.182;5.398;2023-08-21T03:13:18;8.80;;;3.92;;
46651;SDS011;32377;52.182;5.398;2023-08-21T03:15:44;10.45;;;3.92;;
46651;SDS011;32377;52.182;5.398;2023-08-21T03:18:10;13.45;;;3.92;;
46651;SDS011;32377;52.182;5.398;2023-08-21T03:20:35;10.60;;;3.47;;
46651;SDS011;32377;52.182;5.398;2023-08-21T03:23:01;7.10;;;3.47;;
46651;SDS011;32377;52.182;5.398;2023-08-21T03:25:27;7.13;;;3.15;;
46651;SDS011;32377;52.182;5.398;2023-08-21T03:27:53;10.02;;;3.58;;
46651;SDS011;32377;52.182;5.398;2023-08-21T03:30:19;8.68;;;3.72;;
46651;SDS011;32377;52.182;5.398;2023-08-21T03:32:45;5.18;;;3.30;;
46651;SDS011;32377;52.182;5.398;2023-08-21T03:35:10;6.80;;;3.50;;
46651;SDS011;32377;52.182;5.398;2023-08-21T03:37:36;9.02;;;3.20;;
46651;SDS011;32377;52.182;5.398;2023-08-21T03:40:05;8.77;;;3.78;;
46651;SDS011;32377;52.182;5.398;2023-08-21T03:42:31;8.25;;;3.13;;
46651;SDS011;32377;52.182;5.398;2023-08-21T03:44:57;8.38;;;3.47;;
46651;SDS011;32377;52.182;5.398;2023-08-21T03:47:22;7.53;;;3.47;;
46651;SDS011;32377;52.182;5.398;2023-08-21T03:49:48;6.60;;;3.20;;
46651;SDS011;32377;52.182;5.398;2023-08-21T03:52:14;8.50;;;3.65;;
46651;SDS011;32377;52.182;5.398;2023-08-21T03:54:39;11.68;;;3.88;;
46651;SDS011;32377;52.182;5.398;2023-08-21T03:57:05;9.45;;;4.28;;
46651;SDS011;32377;52.182;5.398;2023-08-21T03:59:31;6.50;;;3.47;;
46651;SDS011;32377;52.182;5.398;2023-08-21T04:01:56;9.23;;;3.83;;
46651;SDS011;32377;52.182;5.398;2023-08-21T04:04:22;9.57;;;3.40;;
46651;SDS011;32377;52.182;5.398;2023-08-21T04:06:47;16.20;;;4.28;;
46651;SDS011;32377;52.182;5.398;2023-08-21T04:09:13;8.85;;;3.40;;
46651;SDS011;32377;52.182;5.398;2023-08-21T04:11:39;8.10;;;3.58;;
46651;SDS011;32377;52.182;5.398;2023-08-21T04:14:04;10.98;;;4.18;;
46651;SDS011;32377;52.182;5.398;2023-08-21T04:16:30;8.43;;;3.78;;
46651;SDS011;32377;52.182;5.398;2023-08-21T04:18:56;12.40;;;4.43;;
46651;SDS011;32377;52.182;5.398;2023-08-21T04:21:22;9.43;;;4.15;;
46651;SDS011;32377;52.182;5.398;2023-08-21T04:23:47;12.52;;;4.72;;
46651;SDS011;32377;52.182;5.398;2023-08-21T04:26:13;10.85;;;3.90;;
46651;SDS011;32377;52.182;5.398;2023-08-21T04:28:39;10.00;;;5.25;;
46651;SDS011;32377;52.182;5.398;2023-08-21T04:31:05;9.40;;;4.88;;
46651;SDS011;32377;52.182;5.398;2023-08-21T04:33:31;10.77;;;4.65;;
46651;SDS011;32377;52.182;5.398;2023-08-21T04:35:57;10.20;;;4.22;;
46651;SDS011;32377;52.182;5.398;2023-08-21T04:38:23;11.80;;;4.50;;
46651;SDS011;32377;52.182;5.398;2023-08-21T04:40:48;10.85;;;4.40;;
46651;SDS011;32377;52.182;5.398;2023-08-21T04:43:14;5.10;;;3.30;;
46651;SDS011;32377;52.182;5.398;2023-08-21T04:45:49;10.50;;;4.68;;
46651;SDS011;32377;52.182;5.398;2023-08-21T04:48:17;12.93;;;4.40;;
46651;SDS011;32377;52.182;5.398;2023-08-21T04:50:44;13.52;;;4.13;;
46651;SDS011;32377;52.182;5.398;2023-08-21T04:53:10;8.18;;;5.13;;
46651;SDS011;32377;52.182;5.398;2023-08-21T04:55:36;8.70;;;4.10;;
46651;SDS011;32377;52.182;5.398;2023-08-21T04:58:02;10.27;;;3.95;;
46651;SDS011;32377;52.182;5.398;2023-08-21T05:00:28;10.15;;;5.43;;
46651;SDS011;32377;52.182;5.398;2023-08-21T05:02:54;7.93;;;3.65;;
46651;SDS011;32377;52.182;5.398;2023-08-21T05:05:19;9.30;;;4.22;;
46651;SDS011;32377;52.182;5.398;2023-08-21T05:07:45;5.10;;;3.60;;
46651;SDS011;32377;52.182;5.398;2023-08-21T05:10:11;12.18;;;5.40;;
46651;SDS011;32377;52.182;5.398;2023-08-21T05:12:36;12.63;;;5.07;;
46651;SDS011;32377;52.182;5.398;2023-08-21T05:15:02;9.35;;;3.85;;
46651;SDS011;32377;52.182;5.398;2023-08-21T05:17:28;8.40;;;3.50;;
46651;SDS011;32377;52.182;5.398;2023-08-21T05:19:54;9.98;;;3.90;;
46651;SDS011;32377;52.182;5.398;2023-08-21T05:22:20;10.57;;;4.00;;
46651;SDS011;32377;52.182;5.398;2023-08-21T05:24:46;5.15;;;3.50;;
46651;SDS011;32377;52.182;5.398;2023-08-21T05:27:11;9.00;;;4.22;;
46651;SDS011;32377;52.182;5.398;2023-08-21T05:29:37;12.93;;;4.20;;
46651;SDS011;32377;52.182;5.398;2023-08-21T05:32:02;8.48;;;4.22;;
46651;SDS011;32377;52.182;5.398;2023-08-21T05:34:28;11.05;;;4.38;;
46651;SDS011;32377;52.182;5.398;2023-08-21T05:36:54;10.32;;;4.78;;
46651;SDS011;32377;52.182;5.398;2023-08-21T05:39:20;9.52;;;4.30;;
46651;SDS011;32377;52.182;5.398;2023-08-21T05:41:45;9.73;;;4.57;;
46651;SDS011;32377;52.182;5.398;2023-08-21T05:44:11;11.82;;;4.50;;
46651;SDS011;32377;52.182;5.398;2023-08-21T05:46:37;9.20;;;4.72;;
46651;SDS011;32377;52.182;5.398;2023-08-21T05:49:03;10.25;;;4.05;;
46651;SDS011;32377;52.182;5.398;2023-08-21T05:51:29;9.30;;;4.88;;
46651;SDS011;32377;52.182;5.398;2023-08-21T05:53:55;8.85;;;4.75;;
46651;SDS011;32377;52.182;5.398;2023-08-21T05:56:21;9.80;;;4.93;;
46651;SDS011;32377;52.182;5.398;2023-08-21T05:58:47;12.13;;;4.95;;
46651;SDS011;32377;52.182;5.398;2023-08-21T06:01:13;11.57;;;4.90;;
46651;SDS011;32377;52.182;5.398;2023-08-21T06:03:38;13.30;;;4.70;;
46651;SDS011;32377;52.182;5.398;2023-08-21T06:06:04;10.57;;;4.22;;
46651;SDS011;32377;52.182;5.398;2023-08-21T06:08:30;12.82;;;5.35;;
46651;SDS011;32377;52.182;5.398;2023-08-21T06:10:55;11.45;;;5.30;;
46651;SDS011;32377;52.182;5.398;2023-08-21T06:13:21;13.27;;;5.03;;
46651;SDS011;32377;52.182;5.398;2023-08-21T06:15:47;14.80;;;5.22;;
46651;SDS011;32377;52.182;5.398;2023-08-21T06:18:13;11.15;;;4.82;;
46651;SDS011;32377;52.182;5.398;2023-08-21T06:20:41;11.07;;;5.25;;
46651;SDS011;32377;52.182;5.398;2023-08-21T06:23:08;9.45;;;4.65;;
46651;SDS011;32377;52.182;5.398;2023-08-21T06:25:35;14.02;;;4.80;;
46651;SDS011;32377;52.182;5.398;2023-08-21T06:28:01;16.65;;;5.32;;
46651;SDS011;32377;52.182;5.398;2023-08-21T06:30:26;11.23;;;4.55;;
46651;SDS011;32377;52.182;5.398;2023-08-21T06:32:52;11.82;;;4.32;;
46651;SDS011;32377;52.182;5.398;2023-08-21T06:35:18;10.35;;;4.40;;
46651;SDS011;32377;52.182;5.398;2023-08-21T06:37:43;10.07;;;4.10;;
46651;SDS011;32377;52.182;5.398;2023-08-21T06:40:09;8.13;;;3.65;;
46651;SDS011;32377;52.182;5.398;2023-08-21T06:42:36;10.50;;;3.50;;
46651;SDS011;32377;52.182;5.398;2023-08-21T06:45:02;10.73;;;3.83;;
46651;SDS011;32377;52.182;5.398;2023-08-21T06:47:29;6.72;;;3.70;;
46651;SDS011;32377;52.182;5.398;2023-08-21T06:49:55;11.77;;;4.20;;
46651;SDS011;32377;52.182;5.398;2023-08-21T06:52:20;10.13;;;4.00;;
46651;SDS011;32377;52.182;5.398;2023-08-21T06:54:46;10.00;;;3.72;;
46651;SDS011;32377;52.182;5.398;2023-08-21T06:57:11;9.93;;;3.90;;
46651;SDS011;32377;52.182;5.398;2023-08-21T06:59:37;7.30;;;3.20;;
46651;SDS011;32377;52.182;5.398;2023-08-21T07:02:03;12.35;;;3.72;;
46651;SDS011;32377;52.182;5.398;2023-08-21T07:04:28;8.07;;;3.03;;
46651;SDS011;32377;52.182;5.398;2023-08-21T07:06:54;9.25;;;2.92;;
46651;SDS011;32377;52.182;5.398;2023-08-21T07:09:20;8.02;;;2.40;;
46651;SDS011;32377;52.182;5.398;2023-08-21T07:11:46;6.47;;;2.28;;
46651;SDS011;32377;52.182;5.398;2023-08-21T07:14:11;6.07;;;2.72;;
46651;SDS011;32377;52.182;5.398;2023-08-21T07:16:40;8.75;;;2.35;;
46651;SDS011;32377;52.182;5.398;2023-08-21T07:19:05;9.95;;;2.90;;
46651;SDS011;32377;52.182;5.398;2023-08-21T07:21:31;8.48;;;2.30;;
46651;SDS011;32377;52.182;5.398;2023-08-21T07:23:59;5.72;;;2.45;;
46651;SDS011;32377;52.182;5.398;2023-08-21T07:26:25;8.43;;;2.67;;
46651;SDS011;32377;52.182;5.398;2023-08-21T07:28:50;6.72;;;2.40;;
46651;SDS011;32377;52.182;5.398;2023-08-21T07:31:18;8.48;;;2.10;;
46651;SDS011;32377;52.182;5.398;2023-08-21T07:33:43;7.80;;;1.98;;
46651;SDS011;32377;52.182;5.398;2023-08-21T07:36:09;7.00;;;2.08;;
46651;SDS011;32377;52.182;5.398;2023-08-21T07:38:39;9.65;;;2.30;;
46651;SDS011;32377;52.182;5.398;2023-08-21T07:41:06;7.22;;;2.00;;
46651;SDS011;32377;52.182;5.398;2023-08-21T07:43:34;9.32;;;2.08;;
46651;SDS011;32377;52.182;5.398;2023-08-21T07:46:04;10.82;;;1.92;;
46651;SDS011;32377;52.182;5.398;2023-08-21T07:48:30;7.00;;;1.40;;
46651;SDS011;32377;52.182;5.398;2023-08-21T07:50:56;6.00;;;1.85;;
46651;SDS011;32377;52.182;5.398;2023-08-21T07:53:22;6.43;;;2.08;;
46651;SDS011;32377;52.182;5.398;2023-08-21T07:55:49;9.68;;;2.13;;
46651;SDS011;32377;52.182;5.398;2023-08-21T07:58:15;7.20;;;1.83;;
46651;SDS011;32377;52.182;5.398;2023-08-21T08:00:40;7.18;;;2.05;;
46651;SDS011;32377;52.182;5.398;2023-08-21T08:03:07;4.82;;;1.38;;
46651;SDS011;32377;52.182;5.398;2023-08-21T08:05:33;5.68;;;1.67;;
46651;SDS011;32377;52.182;5.398;2023-08-21T08:08:00;4.72;;;1.73;;
46651;SDS011;32377;52.182;5.398;2023-08-21T08:10:25;8.30;;;1.75;;
46651;SDS011;32377;52.182;5.398;2023-08-21T08:12:51;8.30;;;1.90;;
46651;SDS011;32377;52.182;5.398;2023-08-21T08:15:18;8.57;;;1.92;;
46651;SDS011;32377;52.182;5.398;2023-08-21T08:17:44;11.27;;;2.95;;
46651;SDS011;32377;52.182;5.398;2023-08-21T08:20:17;11.70;;;2.53;;
46651;SDS011;32377;52.182;5.398;2023-08-21T08:22:42;11.88;;;2.67;;
46651;SDS011;32377;52.182;5.398;2023-08-21T08:25:08;13.73;;;2.20;;
46651;SDS011;32377;52.182;5.398;2023-08-21T08:27:34;8.65;;;1.95;;
46651;SDS011;32377;52.182;5.398;2023-08-21T08:29:59;8.27;;;2.28;;
46651;SDS011;32377;52.182;5.398;2023-08-21T08:32:25;6.57;;;1.92;;
46651;SDS011;32377;52.182;5.398;2023-08-21T08:34:51;10.38;;;2.05;;
46651;SDS011;32377;52.182;5.398;2023-08-21T08:37:18;6.97;;;2.05;;
46651;SDS011;32377;52.182;5.398;2023-08-21T08:39:45;8.90;;;1.90;;
46651;SDS011;32377;52.182;5.398;2023-08-21T08:42:11;11.48;;;2.20;;
46651;SDS011;32377;52.182;5.398;2023-08-21T08:44:37;7.97;;;2.00;;
46651;SDS011;32377;52.182;5.398;2023-08-21T08:47:06;11.20;;;2.10;;
46651;SDS011;32377;52.182;5.398;2023-08-21T08:49:32;8.77;;;1.70;;
46651;SDS011;32377;52.182;5.398;2023-08-21T08:51:59;9.13;;;2.20;;
46651;SDS011;32377;52.182;5.398;2023-08-21T08:54:25;6.55;;;1.95;;
46651;SDS011;32377;52.182;5.398;2023-08-21T08:56:52;6.10;;;1.70;;
46651;SDS011;32377;52.182;5.398;2023-08-21T08:59:19;7.07;;;1.90;;
46651;SDS011;32377;52.182;5.398;2023-08-21T09:01:45;7.20;;;2.00;;
46651;SDS011;32377;52.182;5.398;2023-08-21T09:04:11;6.70;;;2.30;;
46651;SDS011;32377;52.182;5.398;2023-08-21T09:06:37;9.75;;;2.10;;
46651;SDS011;32377;52.182;5.398;2023-08-21T09:09:03;4.68;;;1.50;;
46651;SDS011;32377;52.182;5.398;2023-08-21T09:11:29;8.90;;;2.15;;
46651;SDS011;32377;52.182;5.398;2023-08-21T09:13:55;8.50;;;2.08;;
46651;SDS011;32377;52.182;5.398;2023-08-21T09:16:21;9.48;;;1.77;;
46651;SDS011;32377;52.182;5.398;2023-08-21T09:18:52;12.02;;;1.90;;
46651;SDS011;32377;52.182;5.398;2023-08-21T09:21:22;8.23;;;1.60;;
46651;SDS011;32377;52.182;5.398;2023-08-21T09:23:49;7.80;;;1.50;;
46651;SDS011;32377;52.182;5.398;2023-08-21T09:26:22;4.90;;;1.35;;
46651;SDS011;32377;52.182;5.398;2023-08-21T09:28:49;5.85;;;1.50;;
46651;SDS011;32377;52.182;5.398;2023-08-21T09:31:16;9.05;;;1.60;;
46651;SDS011;32377;52.182;5.398;2023-08-21T09:33:57;7.43;;;1.73;;
46651;SDS011;32377;52.182;5.398;2023-08-21T09:36:29;7.97;;;1.58;;
46651;SDS011;32377;52.182;5.398;2023-08-21T09:38:56;4.70;;;1.67;;
46651;SDS011;32377;52.182;5.398;2023-08-21T09:41:26;6.95;;;1.52;;
46651;SDS011;32377;52.182;5.398;2023-08-21T09:43:52;5.32;;;1.70;;
46651;SDS011;32377;52.182;5.398;2023-08-21T09:46:23;5.00;;;1.27;;
46651;SDS011;32377;52.182;5.398;2023-08-21T09:48:51;5.13;;;1.42;;
46651;SDS011;32377;52.182;5.398;2023-08-21T09:51:18;6.38;;;1.60;;
46651;SDS011;32377;52.182;5.398;2023-08-21T09:53:44;7.50;;;1.60;;
46651;SDS011;32377;52.182;5.398;2023-08-21T09:56:11;9.52;;;1.75;;
46651;SDS011;32377;52.182;5.398;2023-08-21T09:58:37;7.30;;;1.75;;
46651;SDS011;32377;52.182;5.398;2023-08-21T10:01:06;4.72;;;1.63;;
46651;SDS011;32377;52.182;5.398;2023-08-21T10:03:42;9.27;;;1.80;;
46651;SDS011;32377;52.182;5.398;2023-08-21T10:06:12;6.47;;;1.63;;
46651;SDS011;32377;52.182;5.398;2023-08-21T10:08:41;7.88;;;1.45;;
46651;SDS011;32377;52.182;5.398;2023-08-21T10:11:08;5.07;;;1.65;;
46651;SDS011;32377;52.182;5.398;2023-08-21T10:13:34;7.10;;;1.35;;
46651;SDS011;32377;52.182;5.398;2023-08-21T10:16:03;7.28;;;1.65;;
46651;SDS011;32377;52.182;5.398;2023-08-21T10:18:34;6.03;;;1.45;;
46651;SDS011;32377;52.182;5.398;2023-08-21T10:21:10;3.97;;;1.45;;
46651;SDS011;32377;52.182;5.398;2023-08-21T10:23:37;3.05;;;1.17;;
46651;SDS011;32377;52.182;5.398;2023-08-21T10:26:07;6.07;;;1.27;;
46651;SDS011;32377;52.182;5.398;2023-08-21T10:29:07;4.85;;;1.60;;
46651;SDS011;32377;52.182;5.398;2023-08-21T10:31:40;6.90;;;1.50;;
46651;SDS011;32377;52.182;5.398;2023-08-21T10:34:14;3.83;;;1.48;;
46651;SDS011;32377;52.182;5.398;2023-08-21T10:39:12;5.93;;;1.70;;
46651;SDS011;32377;52.182;5.398;2023-08-21T10:47:21;9.10;;;1.80;;
46651;SDS011;32377;52.182;5.398;2023-08-21T10:49:56;7.78;;;1.55;;
46651;SDS011;32377;52.182;5.398;2023-08-21T10:52:30;6.80;;;1.90;;
46651;SDS011;32377;52.182;5.398;2023-08-21T10:54:59;12.07;;;2.13;;
46651;SDS011;32377;52.182;5.398;2023-08-21T10:57:27;5.25;;;1.50;;
46651;SDS011;32377;52.182;5.398;2023-08-21T10:59:57;4.28;;;1.52;;
46651;SDS011;32377;52.182;5.398;2023-08-21T11:02:43;7.80;;;1.52;;
46651;SDS011;32377;52.182;5.398;2023-08-21T11:05:11;4.55;;;1.42;;
46651;SDS011;32377;52.182;5.398;2023-08-21T11:07:47;6.32;;;1.20;;
46651;SDS011;32377;52.182;5.398;2023-08-21T11:10:14;4.38;;;1.33;;
46651;SDS011;32377;52.182;5.398;2023-08-21T11:12:50;5.40;;;1.48;;
46651;SDS011;32377;52.182;5.398;2023-08-21T11:15:17;3.13;;;1.30;;
46651;SDS011;32377;52.182;5.398;2023-08-21T11:17:50;5.30;;;1.25;;
46651;SDS011;32377;52.182;5.398;2023-08-21T11:20:30;5.82;;;1.35;;
46651;SDS011;32377;52.182;5.398;2023-08-21T11:22:57;3.88;;;1.35;;
46651;SDS011;32377;52.182;5.398;2023-08-21T11:25:24;6.40;;;1.58;;
46651;SDS011;32377;52.182;5.398;2023-08-21T11:27:50;4.32;;;1.30;;
46651;SDS011;32377;52.182;5.398;2023-08-21T11:30:15;8.98;;;1.58;;
46651;SDS011;32377;52.182;5.398;2023-08-21T11:32:41;3.10;;;1.10;;
46651;SDS011;32377;52.182;5.398;2023-08-21T11:35:07;5.20;;;1.52;;
46651;SDS011;32377;52.182;5.398;2023-08-21T11:37:33;5.05;;;1.10;;
46651;SDS011;32377;52.182;5.398;2023-08-21T11:39:59;6.40;;;1.40;;
46651;SDS011;32377;52.182;5.398;2023-08-21T11:42:31;4.93;;;1.25;;
46651;SDS011;32377;52.182;5.398;2023-08-21T11:44:58;2.22;;;0.80;;
46651;SDS011;32377;52.182;5.398;2023-08-21T11:47:25;5.22;;;1.40;;
46651;SDS011;32377;52.182;5.398;2023-08-21T11:50:05;4.88;;;1.20;;
46651;SDS011;32377;52.182;5.398;2023-08-21T11:52:34;3.08;;;1.13;;
46651;SDS011;32377;52.182;5.398;2023-08-21T11:55:06;4.40;;;1.05;;
46651;SDS011;32377;52.182;5.398;2023-08-21T11:57:50;3.78;;;1.40;;
46651;SDS011;32377;52.182;5.398;2023-08-21T12:00:18;5.75;;;1.45;;
46651;SDS011;32377;52.182;5.398;2023-08-21T12:03:00;6.28;;;1.50;;
46651;SDS011;32377;52.182;5.398;2023-08-21T12:05:27;6.93;;;1.70;;
46651;SDS011;32377;52.182;5.398;2023-08-21T12:07:53;6.10;;;1.40;;
46651;SDS011;32377;52.182;5.398;2023-08-21T12:10:37;3.55;;;1.13;;
46651;SDS011;32377;52.182;5.398;2023-08-21T12:13:03;2.77;;;1.10;;
46651;SDS011;32377;52.182;5.398;2023-08-21T12:15:29;3.72;;;1.35;;
46651;SDS011;32377;52.182;5.398;2023-08-21T12:17:54;4.78;;;1.23;;
46651;SDS011;32377;52.182;5.398;2023-08-21T12:20:20;3.83;;;1.13;;
46651;SDS011;32377;52.182;5.398;2023-08-21T12:22:46;5.05;;;1.08;;
46651;SDS011;32377;52.182;5.398;2023-08-21T12:25:14;5.00;;;1.10;;
46651;SDS011;32377;52.182;5.398;2023-08-21T12:27:41;3.88;;;1.35;;
46651;SDS011;32377;52.182;5.398;2023-08-21T12:30:06;5.35;;;1.15;;
46651;SDS011;32377;52.182;5.398;2023-08-21T12:32:32;2.58;;;1.13;;
46651;SDS011;32377;52.182;5.398;2023-08-21T12:34:58;4.28;;;1.33;;
46651;SDS011;32377;52.182;5.398;2023-08-21T12:37:24;8.73;;;1.52;;
46651;SDS011;32377;52.182;5.398;2023-08-21T12:39:50;4.18;;;1.20;;
46651;SDS011;32377;52.182;5.398;2023-08-21T12:42:16;4.53;;;1.55;;
46651;SDS011;32377;52.182;5.398;2023-08-21T12:44:41;3.38;;;1.10;;
46651;SDS011;32377;52.182;5.398;2023-08-21T12:47:07;4.78;;;1.13;;
46651;SDS011;32377;52.182;5.398;2023-08-21T12:49:33;5.28;;;1.40;;
46651;SDS011;32377;52.182;5.398;2023-08-21T12:52:00;3.72;;;1.50;;
46651;SDS011;32377;52.182;5.398;2023-08-21T12:54:25;4.90;;;1.20;;
46651;SDS011;32377;52.182;5.398;2023-08-21T12:56:51;4.68;;;1.30;;
46651;SDS011;32377;52.182;5.398;2023-08-21T12:59:18;7.60;;;1.25;;
46651;SDS011;32377;52.182;5.398;2023-08-21T13:01:44;4.78;;;1.30;;
46651;SDS011;32377;52.182;5.398;2023-08-21T13:04:10;6.13;;;1.45;;
46651;SDS011;32377;52.182;5.398;2023-08-21T13:06:35;3.70;;;0.90;;
46651;SDS011;32377;52.182;5.398;2023-08-21T13:09:01;3.72;;;1.00;;
46651;SDS011;32377;52.182;5.398;2023-08-21T13:11:28;11.55;;;1.35;;
46651;SDS011;32377;52.182;5.398;2023-08-21T13:13:54;8.68;;;1.25;;
46651;SDS011;32377;52.182;5.398;2023-08-21T13:16:20;4.13;;;1.10;;
46651;SDS011;32377;52.182;5.398;2023-08-21T13:18:46;4.47;;;1.20;;
46651;SDS011;32377;52.182;5.398;2023-08-21T13:21:11;3.28;;;1.13;;
46651;SDS011;32377;52.182;5.398;2023-08-21T13:23:37;6.68;;;1.50;;
46651;SDS011;32377;52.182;5.398;2023-08-21T13:26:03;7.60;;;1.20;;
46651;SDS011;32377;52.182;5.398;2023-08-21T13:28:29;4.35;;;1.45;;
46651;SDS011;32377;52.182;5.398;2023-08-21T13:30:56;4.68;;;0.90;;
46651;SDS011;32377;52.182;5.398;2023-08-21T13:33:21;4.50;;;1.27;;
46651;SDS011;32377;52.182;5.398;2023-08-21T13:35:47;6.10;;;1.30;;
46651;SDS011;32377;52.182;5.398;2023-08-21T13:38:13;4.13;;;1.17;;
46651;SDS011;32377;52.182;5.398;2023-08-21T13:40:39;3.03;;;1.10;;
46651;SDS011;32377;52.182;5.398;2023-08-21T13:43:08;4.88;;;1.30;;
46651;SDS011;32377;52.182;5.398;2023-08-21T13:45:35;5.05;;;1.20;;
46651;SDS011;32377;52.182;5.398;2023-08-21T13:48:01;6.60;;;1.10;;
46651;SDS011;32377;52.182;5.398;2023-08-21T13:50:29;3.13;;;1.10;;
46651;SDS011;32377;52.182;5.398;2023-08-21T13:52:54;3.53;;;1.35;;
46651;SDS011;32377;52.182;5.398;2023-08-21T13:55:21;5.40;;;1.40;;
46651;SDS011;32377;52.182;5.398;2023-08-21T13:57:48;3.75;;;1.35;;
46651;SDS011;32377;52.182;5.398;2023-08-21T14:00:14;4.93;;;1.40;;
46651;SDS011;32377;52.182;5.398;2023-08-21T14:02:42;6.95;;;1.13;;
46651;SDS011;32377;52.182;5.398;2023-08-21T14:05:08;4.20;;;0.95;;
46651;SDS011;32377;52.182;5.398;2023-08-21T14:07:35;4.28;;;0.90;;
46651;SDS011;32377;52.182;5.398;2023-08-21T14:10:01;3.05;;;0.95;;
46651;SDS011;32377;52.182;5.398;2023-08-21T14:12:28;2.28;;;0.68;;
46651;SDS011;32377;52.182;5.398;2023-08-21T14:14:55;6.32;;;1.20;;
46651;SDS011;32377;52.182;5.398;2023-08-21T14:17:20;4.45;;;1.10;;
46651;SDS011;32377;52.182;5.398;2023-08-21T14:19:47;3.33;;;0.82;;
46651;SDS011;32377;52.182;5.398;2023-08-21T14:22:12;5.95;;;1.25;;
46651;SDS011;32377;52.182;5.398;2023-08-21T14:24:38;4.28;;;1.02;;
46651;SDS011;32377;52.182;5.398;2023-08-21T14:27:04;3.05;;;1.10;;
46651;SDS011;32377;52.182;5.398;2023-08-21T14:29:29;2.65;;;1.08;;
46651;SDS011;32377;52.182;5.398;2023-08-21T14:31:55;4.47;;;1.20;;
46651;SDS011;32377;52.182;5.398;2023-08-21T14:34:22;2.65;;;1.20;;
46651;SDS011;32377;52.182;5.398;2023-08-21T14:36:48;3.63;;;0.90;;
46651;SDS011;32377;52.182;5.398;2023-08-21T14:39:14;5.20;;;1.30;;
46651;SDS011;32377;52.182;5.398;2023-08-21T14:41:43;5.45;;;1.00;;
46651;SDS011;32377;52.182;5.398;2023-08-21T14:44:09;7.63;;;1.63;;
46651;SDS011;32377;52.182;5.398;2023-08-21T14:46:35;5.20;;;1.45;;
46651;SDS011;32377;52.182;5.398;2023-08-21T14:49:02;5.18;;;1.25;;
46651;SDS011;32377;52.182;5.398;2023-08-21T14:51:27;4.63;;;1.23;;
46651;SDS011;32377;52.182;5.398;2023-08-21T14:53:53;2.78;;;1.05;;
46651;SDS011;32377;52.182;5.398;2023-08-21T14:56:19;3.42;;;1.13;;